sensor_id;sensor_type;location;lat;lon;timestamp;temperature;humidity
18287;DHT22;9269;50.838;12.094;2022-09-17T00:00:38;15.10;43.40
18287;DHT22;9269;50.838;12.094;2022-09-17T00:03:16;15.10;43.30
18287;DHT22;9269;50.838;12.094;2022-09-17T00:06:05;15.10;43.10
18287;DHT22;9269;50.838;12.094;2022-09-17T00:08:55;15.10;43.40
18287;DHT22;9269;50.838;12.094;2022-09-17T00:11:43;15.20;43.20
18287;DHT22;9269;50.838;12.094;2022-09-17T00:14:27;15.10;43.30
18287;DHT22;9269;50.838;12.094;2022-09-17T00:16:58;15.10;43.30
18287;DHT22;9269;50.838;12.094;2022-09-17T00:19:38;15.10;43.40
18287;DHT22;9269;50.838;12.094;2022-09-17T00:22:26;15.10;43.50
18287;DHT22;9269;50.838;12.094;2022-09-17T00:25:05;15.10;43.20
18287;DHT22;9269;50.838;12.094;2022-09-17T00:27:34;15.10;43.60
18287;DHT22;9269;50.838;12.094;2022-09-17T00:30:04;15.10;43.60
18287;DHT22;9269;50.838;12.094;2022-09-17T00:32:32;15.20;43.80
18287;DHT22;9269;50.838;12.094;2022-09-17T00:35:23;15.20;43.70
18287;DHT22;9269;50.838;12.094;2022-09-17T00:38:07;15.20;43.40
18287;DHT22;9269;50.838;12.094;2022-09-17T00:40:40;15.30;43.70
18287;DHT22;9269;50.838;12.094;2022-09-17T00:43:34;15.30;43.10
18287;DHT22;9269;50.838;12.094;2022-09-17T00:46:08;15.30;43.40
18287;DHT22;9269;50.838;12.094;2022-09-17T00:49:01;15.20;43.50
18287;DHT22;9269;50.838;12.094;2022-09-17T00:51:52;15.20;43.50
18287;DHT22;9269;50.838;12.094;2022-09-17T00:54:53;15.30;43.70
18287;DHT22;9269;50.838;12.094;2022-09-17T00:57:23;15.30;43.70
18287;DHT22;9269;50.838;12.094;2022-09-17T00:59:53;15.20;43.70
18287;DHT22;9269;50.838;12.094;2022-09-17T01:02:41;15.20;43.70
18287;DHT22;9269;50.838;12.094;2022-09-17T01:05:34;15.20;43.50
18287;DHT22;9269;50.838;12.094;2022-09-17T01:08:20;15.30;43.60
18287;DHT22;9269;50.838;12.094;2022-09-17T01:11:26;15.30;43.80
18287;DHT22;9269;50.838;12.094;2022-09-17T01:14:07;15.30;43.90
18287;DHT22;9269;50.838;12.094;2022-09-17T01:16:47;15.30;43.70
18287;DHT22;9269;50.838;12.094;2022-09-17T01:20:03;15.30;43.80
18287;DHT22;9269;50.838;12.094;2022-09-17T01:22:42;15.40;43.70
18287;DHT22;9269;50.838;12.094;2022-09-17T01:25:22;15.40;43.80
18287;DHT22;9269;50.838;12.094;2022-09-17T01:28:26;15.40;43.70
18287;DHT22;9269;50.838;12.094;2022-09-17T01:31:28;15.40;43.70
18287;DHT22;9269;50.838;12.094;2022-09-17T01:34:11;15.30;44.10
18287;DHT22;9269;50.838;12.094;2022-09-17T01:36:50;15.30;44.00
18287;DHT22;9269;50.838;12.094;2022-09-17T01:39:42;15.40;44.00
18287;DHT22;9269;50.838;12.094;2022-09-17T01:42:36;15.40;43.10
18287;DHT22;9269;50.838;12.094;2022-09-17T01:45:14;15.40;44.20
18287;DHT22;9269;50.838;12.094;2022-09-17T01:47:46;15.40;44.20
18287;DHT22;9269;50.838;12.094;2022-09-17T01:50:20;15.40;43.00
18287;DHT22;9269;50.838;12.094;2022-09-17T01:52:54;15.40;43.20
18287;DHT22;9269;50.838;12.094;2022-09-17T01:55:34;15.40;43.10
18287;DHT22;9269;50.838;12.094;2022-09-17T01:58:06;15.50;43.10
18287;DHT22;9269;50.838;12.094;2022-09-17T02:00:38;15.60;43.10
18287;DHT22;9269;50.838;12.094;2022-09-17T02:03:19;15.50;43.30
18287;DHT22;9269;50.838;12.094;2022-09-17T02:05:51;15.50;43.70
18287;DHT22;9269;50.838;12.094;2022-09-17T02:08:25;15.50;43.50
18287;DHT22;9269;50.838;12.094;2022-09-17T02:10:59;15.50;44.00
18287;DHT22;9269;50.838;12.094;2022-09-17T02:13:33;15.40;44.90
18287;DHT22;9269;50.838;12.094;2022-09-17T02:16:08;15.40;43.70
18287;DHT22;9269;50.838;12.094;2022-09-17T02:18:44;15.50;43.70
18287;DHT22;9269;50.838;12.094;2022-09-17T02:21:19;15.40;43.80
18287;DHT22;9269;50.838;12.094;2022-09-17T02:23:55;15.50;44.10
18287;DHT22;9269;50.838;12.094;2022-09-17T02:26:27;15.50;44.10
18287;DHT22;9269;50.838;12.094;2022-09-17T02:29:01;15.40;44.30
18287;DHT22;9269;50.838;12.094;2022-09-17T02:31:32;15.40;45.10
18287;DHT22;9269;50.838;12.094;2022-09-17T02:34:03;15.40;44.40
18287;DHT22;9269;50.838;12.094;2022-09-17T02:36:32;15.50;44.30
18287;DHT22;9269;50.838;12.094;2022-09-17T02:39:02;15.50;44.20
18287;DHT22;9269;50.838;12.094;2022-09-17T02:41:43;15.50;44.10
18287;DHT22;9269;50.838;12.094;2022-09-17T02:44:20;15.50;44.50
18287;DHT22;9269;50.838;12.094;2022-09-17T02:47:00;15.40;44.30
18287;DHT22;9269;50.838;12.094;2022-09-17T02:49:46;15.50;44.20
18287;DHT22;9269;50.838;12.094;2022-09-17T02:52:26;15.40;44.70
18287;DHT22;9269;50.838;12.094;2022-09-17T02:55:06;15.40;44.70
18287;DHT22;9269;50.838;12.094;2022-09-17T02:57:44;15.30;46.00
18287;DHT22;9269;50.838;12.094;2022-09-17T03:00:16;15.30;45.80
18287;DHT22;9269;50.838;12.094;2022-09-17T03:02:47;15.30;45.90
18287;DHT22;9269;50.838;12.094;2022-09-17T03:05:20;15.20;46.10
18287;DHT22;9269;50.838;12.094;2022-09-17T03:07:48;15.30;46.20
18287;DHT22;9269;50.838;12.094;2022-09-17T03:10:17;15.30;45.90
18287;DHT22;9269;50.838;12.094;2022-09-17T03:12:45;15.20;46.20
18287;DHT22;9269;50.838;12.094;2022-09-17T03:15:14;15.20;46.10
18287;DHT22;9269;50.838;12.094;2022-09-17T03:17:42;15.40;46.20
18287;DHT22;9269;50.838;12.094;2022-09-17T03:20:20;15.30;46.40
18287;DHT22;9269;50.838;12.094;2022-09-17T03:22:50;15.30;46.30
18287;DHT22;9269;50.838;12.094;2022-09-17T03:25:19;15.20;46.40
18287;DHT22;9269;50.838;12.094;2022-09-17T03:27:47;15.30;46.70
18287;DHT22;9269;50.838;12.094;2022-09-17T03:30:17;15.30;46.90
18287;DHT22;9269;50.838;12.094;2022-09-17T03:32:45;15.30;46.80
18287;DHT22;9269;50.838;12.094;2022-09-17T03:35:17;15.30;47.00
18287;DHT22;9269;50.838;12.094;2022-09-17T03:37:46;15.30;47.50
18287;DHT22;9269;50.838;12.094;2022-09-17T03:40:15;15.30;47.40
18287;DHT22;9269;50.838;12.094;2022-09-17T03:42:43;15.40;47.60
18287;DHT22;9269;50.838;12.094;2022-09-17T03:45:12;15.40;46.30
18287;DHT22;9269;50.838;12.094;2022-09-17T03:47:40;15.30;47.90
18287;DHT22;9269;50.838;12.094;2022-09-17T03:50:09;15.40;46.40
18287;DHT22;9269;50.838;12.094;2022-09-17T03:52:37;15.30;47.80
18287;DHT22;9269;50.838;12.094;2022-09-17T03:55:08;15.30;47.70
18287;DHT22;9269;50.838;12.094;2022-09-17T03:57:39;15.40;47.60
18287;DHT22;9269;50.838;12.094;2022-09-17T04:00:08;15.40;47.90
18287;DHT22;9269;50.838;12.094;2022-09-17T04:02:38;15.30;47.60
18287;DHT22;9269;50.838;12.094;2022-09-17T04:05:08;15.30;47.70
18287;DHT22;9269;50.838;12.094;2022-09-17T04:07:38;15.30;48.00
18287;DHT22;9269;50.838;12.094;2022-09-17T04:10:08;15.30;47.90
18287;DHT22;9269;50.838;12.094;2022-09-17T04:12:38;15.20;47.80
18287;DHT22;9269;50.838;12.094;2022-09-17T04:15:07;15.20;48.00
18287;DHT22;9269;50.838;12.094;2022-09-17T04:17:35;15.20;47.80
18287;DHT22;9269;50.838;12.094;2022-09-17T04:20:05;15.20;48.50
18287;DHT22;9269;50.838;12.094;2022-09-17T04:22:34;15.20;48.40
18287;DHT22;9269;50.838;12.094;2022-09-17T04:25:03;15.20;48.40
18287;DHT22;9269;50.838;12.094;2022-09-17T04:27:33;15.20;48.80
18287;DHT22;9269;50.838;12.094;2022-09-17T04:30:02;15.30;48.80
18287;DHT22;9269;50.838;12.094;2022-09-17T04:32:30;15.20;48.80
18287;DHT22;9269;50.838;12.094;2022-09-17T04:34:59;15.30;48.60
18287;DHT22;9269;50.838;12.094;2022-09-17T04:37:27;15.10;48.80
18287;DHT22;9269;50.838;12.094;2022-09-17T04:39:56;15.30;48.50
18287;DHT22;9269;50.838;12.094;2022-09-17T04:42:24;15.20;48.60
18287;DHT22;9269;50.838;12.094;2022-09-17T04:44:54;15.20;48.90
18287;DHT22;9269;50.838;12.094;2022-09-17T04:47:22;15.30;48.90
18287;DHT22;9269;50.838;12.094;2022-09-17T04:49:50;15.20;49.10
18287;DHT22;9269;50.838;12.094;2022-09-17T04:52:19;15.20;49.50
18287;DHT22;9269;50.838;12.094;2022-09-17T04:54:48;15.20;49.10
18287;DHT22;9269;50.838;12.094;2022-09-17T04:57:16;15.20;49.50
18287;DHT22;9269;50.838;12.094;2022-09-17T04:59:45;15.10;49.70
18287;DHT22;9269;50.838;12.094;2022-09-17T05:02:14;15.20;49.40
18287;DHT22;9269;50.838;12.094;2022-09-17T05:04:43;15.20;49.60
18287;DHT22;9269;50.838;12.094;2022-09-17T05:07:11;15.20;49.90
18287;DHT22;9269;50.838;12.094;2022-09-17T05:09:40;15.20;49.60
18287;DHT22;9269;50.838;12.094;2022-09-17T05:12:09;15.20;49.60
18287;DHT22;9269;50.838;12.094;2022-09-17T05:14:38;15.20;49.70
18287;DHT22;9269;50.838;12.094;2022-09-17T05:17:06;15.20;49.90
18287;DHT22;9269;50.838;12.094;2022-09-17T05:19:36;15.20;49.80
18287;DHT22;9269;50.838;12.094;2022-09-17T05:22:04;15.20;50.10
18287;DHT22;9269;50.838;12.094;2022-09-17T05:24:33;15.20;50.00
18287;DHT22;9269;50.838;12.094;2022-09-17T05:27:05;15.20;50.10
18287;DHT22;9269;50.838;12.094;2022-09-17T05:29:34;15.20;50.00
18287;DHT22;9269;50.838;12.094;2022-09-17T05:32:03;15.20;50.00
18287;DHT22;9269;50.838;12.094;2022-09-17T05:34:32;15.20;50.50
18287;DHT22;9269;50.838;12.094;2022-09-17T05:37:01;15.20;50.30
18287;DHT22;9269;50.838;12.094;2022-09-17T05:39:30;15.20;50.30
18287;DHT22;9269;50.838;12.094;2022-09-17T05:41:59;15.30;50.30
18287;DHT22;9269;50.838;12.094;2022-09-17T05:44:27;15.40;50.60
18287;DHT22;9269;50.838;12.094;2022-09-17T05:46:55;15.30;50.40
18287;DHT22;9269;50.838;12.094;2022-09-17T05:49:25;15.20;50.30
18287;DHT22;9269;50.838;12.094;2022-09-17T05:51:53;15.40;50.40
18287;DHT22;9269;50.838;12.094;2022-09-17T05:54:23;15.40;50.70
18287;DHT22;9269;50.838;12.094;2022-09-17T05:56:52;15.30;50.60
18287;DHT22;9269;50.838;12.094;2022-09-17T05:59:21;15.30;50.50
18287;DHT22;9269;50.838;12.094;2022-09-17T06:01:50;15.30;50.60
18287;DHT22;9269;50.838;12.094;2022-09-17T06:04:18;15.40;50.70
18287;DHT22;9269;50.838;12.094;2022-09-17T06:06:47;15.40;50.60
18287;DHT22;9269;50.838;12.094;2022-09-17T06:09:15;15.40;50.50
18287;DHT22;9269;50.838;12.094;2022-09-17T06:11:44;15.30;50.80
18287;DHT22;9269;50.838;12.094;2022-09-17T06:14:13;15.40;51.10
18287;DHT22;9269;50.838;12.094;2022-09-17T06:16:41;15.40;51.00
18287;DHT22;9269;50.838;12.094;2022-09-17T06:19:10;15.40;51.40
18287;DHT22;9269;50.838;12.094;2022-09-17T06:21:38;15.40;50.60
18287;DHT22;9269;50.838;12.094;2022-09-17T06:24:08;15.50;50.00
18287;DHT22;9269;50.838;12.094;2022-09-17T06:26:36;15.40;50.10
18287;DHT22;9269;50.838;12.094;2022-09-17T06:29:06;15.40;50.10
18287;DHT22;9269;50.838;12.094;2022-09-17T06:31:35;15.30;51.60
18287;DHT22;9269;50.838;12.094;2022-09-17T06:34:03;15.50;50.70
18287;DHT22;9269;50.838;12.094;2022-09-17T06:36:32;15.60;50.30
18287;DHT22;9269;50.838;12.094;2022-09-17T06:39:01;15.60;50.50
18287;DHT22;9269;50.838;12.094;2022-09-17T06:41:30;15.60;50.20
18287;DHT22;9269;50.838;12.094;2022-09-17T06:43:59;15.70;50.70
18287;DHT22;9269;50.838;12.094;2022-09-17T06:46:29;15.70;50.40
18287;DHT22;9269;50.838;12.094;2022-09-17T06:48:58;15.70;50.60
18287;DHT22;9269;50.838;12.094;2022-09-17T06:51:26;15.70;50.60
18287;DHT22;9269;50.838;12.094;2022-09-17T06:53:54;15.70;50.70
18287;DHT22;9269;50.838;12.094;2022-09-17T06:56:22;15.60;50.40
18287;DHT22;9269;50.838;12.094;2022-09-17T06:58:51;15.70;50.30
18287;DHT22;9269;50.838;12.094;2022-09-17T07:01:19;15.80;50.30
18287;DHT22;9269;50.838;12.094;2022-09-17T07:03:49;15.90;50.40
18287;DHT22;9269;50.838;12.094;2022-09-17T07:06:18;16.00;50.20
18287;DHT22;9269;50.838;12.094;2022-09-17T07:08:46;16.10;50.50
18287;DHT22;9269;50.838;12.094;2022-09-17T07:11:15;16.10;50.50
18287;DHT22;9269;50.838;12.094;2022-09-17T07:13:43;16.20;50.20
18287;DHT22;9269;50.838;12.094;2022-09-17T07:16:11;16.20;50.00
18287;DHT22;9269;50.838;12.094;2022-09-17T07:18:40;16.20;49.90
18287;DHT22;9269;50.838;12.094;2022-09-17T07:21:09;16.20;50.00
18287;DHT22;9269;50.838;12.094;2022-09-17T07:23:38;16.10;50.00
18287;DHT22;9269;50.838;12.094;2022-09-17T07:26:11;16.20;50.20
18287;DHT22;9269;50.838;12.094;2022-09-17T07:28:40;16.10;50.10
18287;DHT22;9269;50.838;12.094;2022-09-17T07:31:10;16.10;49.70
18287;DHT22;9269;50.838;12.094;2022-09-17T07:33:43;16.20;49.80
18287;DHT22;9269;50.838;12.094;2022-09-17T07:36:13;16.30;49.40
18287;DHT22;9269;50.838;12.094;2022-09-17T07:38:44;16.50;49.80
18287;DHT22;9269;50.838;12.094;2022-09-17T07:41:14;16.60;49.40
18287;DHT22;9269;50.838;12.094;2022-09-17T07:43:43;16.70;49.30
18287;DHT22;9269;50.838;12.094;2022-09-17T07:46:13;16.80;49.20
18287;DHT22;9269;50.838;12.094;2022-09-17T07:48:43;16.80;48.80
18287;DHT22;9269;50.838;12.094;2022-09-17T07:51:18;16.60;48.90
18287;DHT22;9269;50.838;12.094;2022-09-17T07:53:49;16.80;48.60
18287;DHT22;9269;50.838;12.094;2022-09-17T07:56:18;16.90;48.70
18287;DHT22;9269;50.838;12.094;2022-09-17T07:58:46;17.00;48.50
18287;DHT22;9269;50.838;12.094;2022-09-17T08:01:15;17.20;47.40
18287;DHT22;9269;50.838;12.094;2022-09-17T08:03:48;17.30;47.30
18287;DHT22;9269;50.838;12.094;2022-09-17T08:06:21;17.50;46.90
18287;DHT22;9269;50.838;12.094;2022-09-17T08:08:52;17.80;47.00
18287;DHT22;9269;50.838;12.094;2022-09-17T08:11:23;17.90;46.40
18287;DHT22;9269;50.838;12.094;2022-09-17T08:14:13;17.90;46.10
18287;DHT22;9269;50.838;12.094;2022-09-17T08:16:42;18.00;46.00
18287;DHT22;9269;50.838;12.094;2022-09-17T08:19:12;17.90;45.90
18287;DHT22;9269;50.838;12.094;2022-09-17T08:21:42;17.90;45.60
18287;DHT22;9269;50.838;12.094;2022-09-17T08:24:10;17.80;45.50
18287;DHT22;9269;50.838;12.094;2022-09-17T08:26:38;17.50;45.60
18287;DHT22;9269;50.838;12.094;2022-09-17T08:29:07;17.70;45.50
18287;DHT22;9269;50.838;12.094;2022-09-17T08:31:39;17.80;45.50
18287;DHT22;9269;50.838;12.094;2022-09-17T08:34:08;18.10;45.50
18287;DHT22;9269;50.838;12.094;2022-09-17T08:36:36;18.30;43.90
18287;DHT22;9269;50.838;12.094;2022-09-17T08:39:06;18.30;43.50
18287;DHT22;9269;50.838;12.094;2022-09-17T08:41:51;18.30;42.90
18287;DHT22;9269;50.838;12.094;2022-09-17T08:44:25;18.20;43.20
18287;DHT22;9269;50.838;12.094;2022-09-17T08:46:58;18.10;44.50
18287;DHT22;9269;50.838;12.094;2022-09-17T08:49:32;18.10;44.20
18287;DHT22;9269;50.838;12.094;2022-09-17T08:52:17;18.00;44.70
18287;DHT22;9269;50.838;12.094;2022-09-17T08:55:00;18.00;44.80
18287;DHT22;9269;50.838;12.094;2022-09-17T08:57:35;17.80;44.30
18287;DHT22;9269;50.838;12.094;2022-09-17T09:00:10;17.70;44.40
18287;DHT22;9269;50.838;12.094;2022-09-17T09:02:54;17.70;44.30
18287;DHT22;9269;50.838;12.094;2022-09-17T09:05:25;17.50;44.10
18287;DHT22;9269;50.838;12.094;2022-09-17T09:08:00;17.40;44.10
18287;DHT22;9269;50.838;12.094;2022-09-17T09:10:37;17.30;44.40
18287;DHT22;9269;50.838;12.094;2022-09-17T09:13:12;17.50;43.70
18287;DHT22;9269;50.838;12.094;2022-09-17T09:15:44;17.60;43.50
18287;DHT22;9269;50.838;12.094;2022-09-17T09:18:18;17.50;43.30
18287;DHT22;9269;50.838;12.094;2022-09-17T09:20:49;17.60;43.00
18287;DHT22;9269;50.838;12.094;2022-09-17T09:23:23;17.70;42.50
18287;DHT22;9269;50.838;12.094;2022-09-17T09:26:05;17.70;42.30
18287;DHT22;9269;50.838;12.094;2022-09-17T09:28:46;17.70;42.20
18287;DHT22;9269;50.838;12.094;2022-09-17T09:31:44;17.60;41.40
18287;DHT22;9269;50.838;12.094;2022-09-17T09:34:15;17.60;41.70
18287;DHT22;9269;50.838;12.094;2022-09-17T09:36:44;17.60;41.80
18287;DHT22;9269;50.838;12.094;2022-09-17T09:39:16;17.40;41.50
18287;DHT22;9269;50.838;12.094;2022-09-17T09:41:50;17.50;41.80
18287;DHT22;9269;50.838;12.094;2022-09-17T09:44:23;17.40;41.70
18287;DHT22;9269;50.838;12.094;2022-09-17T09:47:06;17.40;41.80
18287;DHT22;9269;50.838;12.094;2022-09-17T09:49:52;17.30;41.80
18287;DHT22;9269;50.838;12.094;2022-09-17T09:52:35;17.30;42.40
18287;DHT22;9269;50.838;12.094;2022-09-17T09:55:22;17.10;42.80
18287;DHT22;9269;50.838;12.094;2022-09-17T09:58:04;17.20;43.10
18287;DHT22;9269;50.838;12.094;2022-09-17T10:00:36;17.10;43.60
18287;DHT22;9269;50.838;12.094;2022-09-17T10:03:10;17.00;44.00
18287;DHT22;9269;50.838;12.094;2022-09-17T10:05:45;17.10;44.00
18287;DHT22;9269;50.838;12.094;2022-09-17T10:08:18;17.10;44.50
18287;DHT22;9269;50.838;12.094;2022-09-17T10:10:56;17.10;44.40
18287;DHT22;9269;50.838;12.094;2022-09-17T10:13:27;17.10;44.60
18287;DHT22;9269;50.838;12.094;2022-09-17T10:15:56;17.10;44.50
18287;DHT22;9269;50.838;12.094;2022-09-17T10:18:35;17.10;44.90
18287;DHT22;9269;50.838;12.094;2022-09-17T10:21:03;17.00;45.00
18287;DHT22;9269;50.838;12.094;2022-09-17T10:23:35;17.00;44.80
18287;DHT22;9269;50.838;12.094;2022-09-17T10:26:05;17.00;45.00
18287;DHT22;9269;50.838;12.094;2022-09-17T10:28:48;17.00;45.10
18287;DHT22;9269;50.838;12.094;2022-09-17T10:31:18;17.00;45.10
18287;DHT22;9269;50.838;12.094;2022-09-17T10:33:52;17.10;45.20
18287;DHT22;9269;50.838;12.094;2022-09-17T10:36:40;17.10;45.10
18287;DHT22;9269;50.838;12.094;2022-09-17T10:39:29;17.30;45.50
18287;DHT22;9269;50.838;12.094;2022-09-17T10:41:59;17.70;44.90
18287;DHT22;9269;50.838;12.094;2022-09-17T10:44:31;17.90;44.30
18287;DHT22;9269;50.838;12.094;2022-09-17T10:47:02;18.10;44.10
18287;DHT22;9269;50.838;12.094;2022-09-17T10:49:38;18.00;43.40
18287;DHT22;9269;50.838;12.094;2022-09-17T10:52:17;17.80;42.90
18287;DHT22;9269;50.838;12.094;2022-09-17T10:55:08;17.50;42.60
18287;DHT22;9269;50.838;12.094;2022-09-17T10:57:52;17.40;42.80
18287;DHT22;9269;50.838;12.094;2022-09-17T11:00:24;17.30;42.80
18287;DHT22;9269;50.838;12.094;2022-09-17T11:03:15;17.20;43.50
18287;DHT22;9269;50.838;12.094;2022-09-17T11:08:48;17.10;43.90
18287;DHT22;9269;50.838;12.094;2022-09-17T11:11:31;17.10;43.70
18287;DHT22;9269;50.838;12.094;2022-09-17T11:14:12;17.20;43.60
18287;DHT22;9269;50.838;12.094;2022-09-17T11:16:50;17.50;43.60
18287;DHT22;9269;50.838;12.094;2022-09-17T11:19:33;17.90;43.50
18287;DHT22;9269;50.838;12.094;2022-09-17T11:22:10;18.20;42.50
18287;DHT22;9269;50.838;12.094;2022-09-17T11:25:04;18.50;41.70
18287;DHT22;9269;50.838;12.094;2022-09-17T11:27:51;18.80;41.70
18287;DHT22;9269;50.838;12.094;2022-09-17T11:30:23;19.00;41.30
18287;DHT22;9269;50.838;12.094;2022-09-17T11:33:16;19.00;40.80
18287;DHT22;9269;50.838;12.094;2022-09-17T11:35:48;18.70;40.40
18287;DHT22;9269;50.838;12.094;2022-09-17T11:38:23;18.60;40.70
18287;DHT22;9269;50.838;12.094;2022-09-17T11:40:58;18.50;40.10
18287;DHT22;9269;50.838;12.094;2022-09-17T11:43:30;18.60;40.50
18287;DHT22;9269;50.838;12.094;2022-09-17T11:46:04;18.70;40.10
18287;DHT22;9269;50.838;12.094;2022-09-17T11:48:42;18.90;39.80
18287;DHT22;9269;50.838;12.094;2022-09-17T11:51:24;19.00;39.10
18287;DHT22;9269;50.838;12.094;2022-09-17T11:53:59;19.20;37.60
18287;DHT22;9269;50.838;12.094;2022-09-17T11:56:37;19.30;37.10
18287;DHT22;9269;50.838;12.094;2022-09-17T11:59:12;19.50;36.60
18287;DHT22;9269;50.838;12.094;2022-09-17T12:01:48;19.50;34.60
18287;DHT22;9269;50.838;12.094;2022-09-17T12:04:31;19.60;34.20
18287;DHT22;9269;50.838;12.094;2022-09-17T12:07:07;19.60;33.10
18287;DHT22;9269;50.838;12.094;2022-09-17T12:09:38;19.60;32.30
18287;DHT22;9269;50.838;12.094;2022-09-17T12:12:14;19.80;32.40
18287;DHT22;9269;50.838;12.094;2022-09-17T12:15:11;19.80;32.50
18287;DHT22;9269;50.838;12.094;2022-09-17T12:17:45;20.00;32.60
18287;DHT22;9269;50.838;12.094;2022-09-17T12:20:22;20.10;32.50
18287;DHT22;9269;50.838;12.094;2022-09-17T12:22:57;20.30;32.70
18287;DHT22;9269;50.838;12.094;2022-09-17T12:25:30;20.40;32.40
18287;DHT22;9269;50.838;12.094;2022-09-17T12:28:06;20.50;32.60
18287;DHT22;9269;50.838;12.094;2022-09-17T12:30:39;20.50;32.10
18287;DHT22;9269;50.838;12.094;2022-09-17T12:33:20;20.50;31.20
18287;DHT22;9269;50.838;12.094;2022-09-17T12:36:21;20.20;30.80
18287;DHT22;9269;50.838;12.094;2022-09-17T12:39:24;20.00;30.30
18287;DHT22;9269;50.838;12.094;2022-09-17T12:42:04;19.80;30.70
18287;DHT22;9269;50.838;12.094;2022-09-17T12:44:53;20.00;30.70
18287;DHT22;9269;50.838;12.094;2022-09-17T12:47:49;20.10;30.30
18287;DHT22;9269;50.838;12.094;2022-09-17T12:50:34;20.30;29.40
18287;DHT22;9269;50.838;12.094;2022-09-17T12:53:21;20.40;29.30
18287;DHT22;9269;50.838;12.094;2022-09-17T12:56:09;20.20;28.20
18287;DHT22;9269;50.838;12.094;2022-09-17T12:58:58;20.20;27.90
18287;DHT22;9269;50.838;12.094;2022-09-17T13:01:37;20.30;28.20
18287;DHT22;9269;50.838;12.094;2022-09-17T13:04:17;20.40;28.20
18287;DHT22;9269;50.838;12.094;2022-09-17T13:07:29;20.60;28.50
18287;DHT22;9269;50.838;12.094;2022-09-17T13:10:20;20.70;27.60
18287;DHT22;9269;50.838;12.094;2022-09-17T13:12:58;20.80;27.90
18287;DHT22;9269;50.838;12.094;2022-09-17T13:15:45;20.80;27.60
18287;DHT22;9269;50.838;12.094;2022-09-17T13:18:22;20.70;26.60
18287;DHT22;9269;50.838;12.094;2022-09-17T13:20:59;20.90;26.70
18287;DHT22;9269;50.838;12.094;2022-09-17T13:23:34;20.60;26.70
18287;DHT22;9269;50.838;12.094;2022-09-17T13:26:06;20.70;26.60
18287;DHT22;9269;50.838;12.094;2022-09-17T13:28:37;20.60;27.20
18287;DHT22;9269;50.838;12.094;2022-09-17T13:31:12;20.70;26.90
18287;DHT22;9269;50.838;12.094;2022-09-17T13:33:54;20.80;27.20
18287;DHT22;9269;50.838;12.094;2022-09-17T13:36:44;20.90;26.40
18287;DHT22;9269;50.838;12.094;2022-09-17T13:39:41;21.10;26.50
18287;DHT22;9269;50.838;12.094;2022-09-17T13:42:16;21.10;26.80
18287;DHT22;9269;50.838;12.094;2022-09-17T13:44:52;21.20;26.10
18287;DHT22;9269;50.838;12.094;2022-09-17T13:47:24;21.10;25.90
18287;DHT22;9269;50.838;12.094;2022-09-17T13:49:57;21.10;26.00
18287;DHT22;9269;50.838;12.094;2022-09-17T13:52:35;21.10;25.50
18287;DHT22;9269;50.838;12.094;2022-09-17T13:55:06;21.20;26.00
18287;DHT22;9269;50.838;12.094;2022-09-17T13:57:48;21.30;25.80
18287;DHT22;9269;50.838;12.094;2022-09-17T14:00:46;21.40;25.80
18287;DHT22;9269;50.838;12.094;2022-09-17T14:03:53;21.30;25.60
18287;DHT22;9269;50.838;12.094;2022-09-17T14:06:46;21.30;26.40
18287;DHT22;9269;50.838;12.094;2022-09-17T14:09:50;21.30;26.10
18287;DHT22;9269;50.838;12.094;2022-09-17T14:12:54;21.20;25.40
18287;DHT22;9269;50.838;12.094;2022-09-17T14:18:35;21.10;24.50
18287;DHT22;9269;50.838;12.094;2022-09-17T14:21:12;21.10;25.40
18287;DHT22;9269;50.838;12.094;2022-09-17T14:23:44;21.10;24.80
18287;DHT22;9269;50.838;12.094;2022-09-17T14:26:22;20.90;25.00
18287;DHT22;9269;50.838;12.094;2022-09-17T14:28:59;21.00;24.50
18287;DHT22;9269;50.838;12.094;2022-09-17T14:31:32;20.90;24.20
18287;DHT22;9269;50.838;12.094;2022-09-17T14:34:03;20.80;25.20
18287;DHT22;9269;50.838;12.094;2022-09-17T14:36:35;20.80;25.00
18287;DHT22;9269;50.838;12.094;2022-09-17T14:39:11;20.70;25.10
18287;DHT22;9269;50.838;12.094;2022-09-17T14:41:43;20.60;24.40
18287;DHT22;9269;50.838;12.094;2022-09-17T14:44:18;20.60;24.50
18287;DHT22;9269;50.838;12.094;2022-09-17T14:46:53;20.50;24.60
18287;DHT22;9269;50.838;12.094;2022-09-17T14:49:24;20.40;24.10
18287;DHT22;9269;50.838;12.094;2022-09-17T14:51:54;20.40;24.80
18287;DHT22;9269;50.838;12.094;2022-09-17T14:54:24;20.40;24.70
18287;DHT22;9269;50.838;12.094;2022-09-17T14:56:58;20.30;24.60
18287;DHT22;9269;50.838;12.094;2022-09-17T14:59:40;20.20;25.50
18287;DHT22;9269;50.838;12.094;2022-09-17T15:02:26;20.20;24.90
18287;DHT22;9269;50.838;12.094;2022-09-17T15:04:57;20.20;25.50
18287;DHT22;9269;50.838;12.094;2022-09-17T15:07:26;20.10;25.50
18287;DHT22;9269;50.838;12.094;2022-09-17T15:10:06;20.10;25.80
18287;DHT22;9269;50.838;12.094;2022-09-17T15:12:37;20.00;25.70
18287;DHT22;9269;50.838;12.094;2022-09-17T15:15:16;20.00;25.30
18287;DHT22;9269;50.838;12.094;2022-09-17T15:17:46;19.80;25.70
18287;DHT22;9269;50.838;12.094;2022-09-17T15:20:18;19.70;25.70
18287;DHT22;9269;50.838;12.094;2022-09-17T15:22:52;19.60;25.60
18287;DHT22;9269;50.838;12.094;2022-09-17T15:25:24;19.60;26.00
18287;DHT22;9269;50.838;12.094;2022-09-17T15:28:03;19.50;26.00
18287;DHT22;9269;50.838;12.094;2022-09-17T15:30:34;19.40;25.90
18287;DHT22;9269;50.838;12.094;2022-09-17T15:33:02;19.40;26.10
18287;DHT22;9269;50.838;12.094;2022-09-17T15:35:32;19.20;26.20
18287;DHT22;9269;50.838;12.094;2022-09-17T15:38:02;19.00;26.40
18287;DHT22;9269;50.838;12.094;2022-09-17T15:40:50;19.00;26.40
18287;DHT22;9269;50.838;12.094;2022-09-17T15:43:24;18.90;26.60
18287;DHT22;9269;50.838;12.094;2022-09-17T15:45:56;18.80;27.00
18287;DHT22;9269;50.838;12.094;2022-09-17T15:48:36;18.80;27.70
18287;DHT22;9269;50.838;12.094;2022-09-17T15:51:21;18.70;28.10
18287;DHT22;9269;50.838;12.094;2022-09-17T15:53:52;18.50;28.80
18287;DHT22;9269;50.838;12.094;2022-09-17T15:56:24;18.40;29.00
18287;DHT22;9269;50.838;12.094;2022-09-17T15:58:58;18.40;30.20
18287;DHT22;9269;50.838;12.094;2022-09-17T16:01:50;18.20;30.30
18287;DHT22;9269;50.838;12.094;2022-09-17T16:04:29;18.20;31.20
18287;DHT22;9269;50.838;12.094;2022-09-17T16:07:26;18.00;33.30
18287;DHT22;9269;50.838;12.094;2022-09-17T16:09:55;18.00;33.60
18287;DHT22;9269;50.838;12.094;2022-09-17T16:12:26;17.70;34.30
18287;DHT22;9269;50.838;12.094;2022-09-17T16:14:57;17.60;34.80
18287;DHT22;9269;50.838;12.094;2022-09-17T16:17:41;17.50;35.10
18287;DHT22;9269;50.838;12.094;2022-09-17T16:20:15;17.50;35.00
18287;DHT22;9269;50.838;12.094;2022-09-17T16:22:44;17.70;35.20
18287;DHT22;9269;50.838;12.094;2022-09-17T16:25:23;17.60;35.40
18287;DHT22;9269;50.838;12.094;2022-09-17T16:27:56;17.60;35.70